sensor_id;sensor_type;location;lat;lon;timestamp;P1;durP1;ratioP1;P2;durP2;ratioP2
19456;SDS011;9867;48.094;11.478;2023-03-01T00:01:31;19.40;;;16.47;;
19456;SDS011;9867;48.094;11.478;2023-03-01T00:03:58;17.97;;;16.07;;
19456;SDS011;9867;48.094;11.478;2023-03-01T00:06:26;16.90;;;15.10;;
19456;SDS011;9867;48.094;11.478;2023-03-01T00:08:53;18.80;;;16.80;;
19456;SDS011;9867;48.094;11.478;2023-03-01T00:11:20;18.43;;;16.43;;
19456;SDS011;9867;48.094;11.478;2023-03-01T00:13:50;17.50;;;15.77;;
19456;SDS011;9867;48.094;11.478;2023-03-01T00:16:19;18.83;;;16.40;;
19456;SDS011;9867;48.094;11.478;2023-03-01T00:18:47;18.03;;;16.23;;
19456;SDS011;9867;48.094;11.478;2023-03-01T00:21:13;17.10;;;15.30;;
19456;SDS011;9867;48.094;11.478;2023-03-01T00:23:41;17.87;;;15.97;;
19456;SDS011;9867;48.094;11.478;2023-03-01T00:26:08;18.47;;;16.37;;
19456;SDS011;9867;48.094;11.478;2023-03-01T00:28:38;18.27;;;16.37;;
19456;SDS011;9867;48.094;11.478;2023-03-01T00:31:08;16.90;;;15.07;;
19456;SDS011;9867;48.094;11.478;2023-03-01T00:33:37;17.80;;;15.33;;
19456;SDS011;9867;48.094;11.478;2023-03-01T00:36:04;18.97;;;16.97;;
19456;SDS011;9867;48.094;11.478;2023-03-01T00:38:34;18.60;;;16.70;;
19456;SDS011;9867;48.094;11.478;2023-03-01T00:41:02;16.60;;;14.73;;
19456;SDS011;9867;48.094;11.478;2023-03-01T00:43:30;18.13;;;15.60;;
19456;SDS011;9867;48.094;11.478;2023-03-01T00:46:00;20.40;;;16.17;;
19456;SDS011;9867;48.094;11.478;2023-03-01T00:48:27;20.30;;;15.60;;
19456;SDS011;9867;48.094;11.478;2023-03-01T00:50:54;18.43;;;15.77;;
19456;SDS011;9867;48.094;11.478;2023-03-01T00:53:20;17.87;;;15.97;;
19456;SDS011;9867;48.094;11.478;2023-03-01T00:55:46;18.20;;;16.30;;
19456;SDS011;9867;48.094;11.478;2023-03-01T00:58:13;18.77;;;15.00;;
19456;SDS011;9867;48.094;11.478;2023-03-01T01:00:39;17.93;;;15.73;;
19456;SDS011;9867;48.094;11.478;2023-03-01T01:03:06;16.77;;;14.63;;
19456;SDS011;9867;48.094;11.478;2023-03-01T01:05:34;17.37;;;15.47;;
19456;SDS011;9867;48.094;11.478;2023-03-01T01:08:01;18.37;;;15.27;;
19456;SDS011;9867;48.094;11.478;2023-03-01T01:10:27;16.27;;;14.60;;
19456;SDS011;9867;48.094;11.478;2023-03-01T01:12:54;17.73;;;15.33;;
19456;SDS011;9867;48.094;11.478;2023-03-01T01:15:21;18.67;;;15.67;;
19456;SDS011;9867;48.094;11.478;2023-03-01T01:17:47;19.07;;;15.47;;
19456;SDS011;9867;48.094;11.478;2023-03-01T01:20:14;17.27;;;15.13;;
19456;SDS011;9867;48.094;11.478;2023-03-01T01:22:41;18.50;;;16.27;;
19456;SDS011;9867;48.094;11.478;2023-03-01T01:25:09;19.90;;;15.70;;
19456;SDS011;9867;48.094;11.478;2023-03-01T01:27:36;17.20;;;15.43;;
19456;SDS011;9867;48.094;11.478;2023-03-01T01:30:03;17.93;;;16.00;;
19456;SDS011;9867;48.094;11.478;2023-03-01T01:32:30;16.60;;;14.87;;
19456;SDS011;9867;48.094;11.478;2023-03-01T01:34:57;17.73;;;15.90;;
19456;SDS011;9867;48.094;11.478;2023-03-01T01:37:23;17.97;;;15.73;;
19456;SDS011;9867;48.094;11.478;2023-03-01T01:39:57;17.77;;;15.90;;
19456;SDS011;9867;48.094;11.478;2023-03-01T01:42:24;18.00;;;15.47;;
19456;SDS011;9867;48.094;11.478;2023-03-01T01:47:52;18.00;;;15.53;;
19456;SDS011;9867;48.094;11.478;2023-03-01T01:50:20;17.00;;;15.20;;
19456;SDS011;9867;48.094;11.478;2023-03-01T01:52:48;18.77;;;15.80;;
19456;SDS011;9867;48.094;11.478;2023-03-01T01:55:18;18.67;;;16.10;;
19456;SDS011;9867;48.094;11.478;2023-03-01T01:57:48;17.93;;;16.03;;
19456;SDS011;9867;48.094;11.478;2023-03-01T02:00:19;18.03;;;16.17;;
19456;SDS011;9867;48.094;11.478;2023-03-01T02:02:48;17.03;;;15.10;;
19456;SDS011;9867;48.094;11.478;2023-03-01T02:05:20;17.67;;;15.83;;
19456;SDS011;9867;48.094;11.478;2023-03-01T02:07:55;16.20;;;14.50;;
19456;SDS011;9867;48.094;11.478;2023-03-01T02:10:24;20.80;;;16.20;;
19456;SDS011;9867;48.094;11.478;2023-03-01T02:12:53;17.90;;;16.00;;
19456;SDS011;9867;48.094;11.478;2023-03-01T02:15:21;17.03;;;15.23;;
19456;SDS011;9867;48.094;11.478;2023-03-01T02:17:48;18.10;;;16.20;;
19456;SDS011;9867;48.094;11.478;2023-03-01T02:20:16;18.60;;;15.67;;
19456;SDS011;9867;48.094;11.478;2023-03-01T02:22:48;17.73;;;15.83;;
19456;SDS011;9867;48.094;11.478;2023-03-01T02:25:26;17.80;;;15.83;;
19456;SDS011;9867;48.094;11.478;2023-03-01T02:27:58;18.23;;;16.00;;
19456;SDS011;9867;48.094;11.478;2023-03-01T02:30:32;19.23;;;15.80;;
19456;SDS011;9867;48.094;11.478;2023-03-01T02:33:00;18.57;;;16.17;;
19456;SDS011;9867;48.094;11.478;2023-03-01T02:35:28;17.40;;;15.60;;
19456;SDS011;9867;48.094;11.478;2023-03-01T02:37:58;17.77;;;15.13;;
19456;SDS011;9867;48.094;11.478;2023-03-01T02:40:26;17.40;;;15.37;;
19456;SDS011;9867;48.094;11.478;2023-03-01T02:42:56;17.40;;;14.43;;
19456;SDS011;9867;48.094;11.478;2023-03-01T02:45:24;18.90;;;15.87;;
19456;SDS011;9867;48.094;11.478;2023-03-01T02:47:53;18.57;;;16.67;;
19456;SDS011;9867;48.094;11.478;2023-03-01T02:50:27;20.00;;;15.90;;
19456;SDS011;9867;48.094;11.478;2023-03-01T02:53:10;19.33;;;15.97;;
19456;SDS011;9867;48.094;11.478;2023-03-01T02:55:42;19.07;;;17.00;;
19456;SDS011;9867;48.094;11.478;2023-03-01T02:58:09;18.40;;;16.43;;
19456;SDS011;9867;48.094;11.478;2023-03-01T03:00:36;17.27;;;15.43;;
19456;SDS011;9867;48.094;11.478;2023-03-01T03:03:06;17.07;;;14.97;;
19456;SDS011;9867;48.094;11.478;2023-03-01T03:05:33;18.27;;;15.37;;
19456;SDS011;9867;48.094;11.478;2023-03-01T03:08:00;17.03;;;15.23;;
19456;SDS011;9867;48.094;11.478;2023-03-01T03:10:33;17.40;;;15.33;;
19456;SDS011;9867;48.094;11.478;2023-03-01T03:13:02;16.40;;;14.70;;
19456;SDS011;9867;48.094;11.478;2023-03-01T03:15:31;17.33;;;15.53;;
19456;SDS011;9867;48.094;11.478;2023-03-01T03:18:01;18.33;;;16.33;;
19456;SDS011;9867;48.094;11.478;2023-03-01T03:20:30;17.50;;;15.63;;
19456;SDS011;9867;48.094;11.478;2023-03-01T03:22:57;17.77;;;15.87;;
19456;SDS011;9867;48.094;11.478;2023-03-01T03:25:24;17.37;;;15.67;;
19456;SDS011;9867;48.094;11.478;2023-03-01T03:27:52;18.40;;;15.37;;
19456;SDS011;9867;48.094;11.478;2023-03-01T03:30:22;18.03;;;16.23;;
19456;SDS011;9867;48.094;11.478;2023-03-01T03:32:50;17.90;;;15.23;;
19456;SDS011;9867;48.094;11.478;2023-03-01T03:35:18;17.47;;;15.60;;
19456;SDS011;9867;48.094;11.478;2023-03-01T03:37:46;16.50;;;14.73;;
19456;SDS011;9867;48.094;11.478;2023-03-01T03:40:31;18.13;;;15.03;;
19456;SDS011;9867;48.094;11.478;2023-03-01T03:42:59;17.77;;;15.13;;
19456;SDS011;9867;48.094;11.478;2023-03-01T03:45:25;17.20;;;15.33;;
19456;SDS011;9867;48.094;11.478;2023-03-01T03:47:52;16.70;;;15.00;;
19456;SDS011;9867;48.094;11.478;2023-03-01T03:50:18;17.67;;;15.67;;
19456;SDS011;9867;48.094;11.478;2023-03-01T03:52:46;18.67;;;16.67;;
19456;SDS011;9867;48.094;11.478;2023-03-01T03:55:13;18.63;;;15.70;;
19456;SDS011;9867;48.094;11.478;2023-03-01T03:57:45;17.93;;;16.13;;
19456;SDS011;9867;48.094;11.478;2023-03-01T04:00:17;22.73;;;15.67;;
19456;SDS011;9867;48.094;11.478;2023-03-01T04:02:45;17.97;;;15.87;;
19456;SDS011;9867;48.094;11.478;2023-03-01T04:05:14;19.03;;;16.63;;
19456;SDS011;9867;48.094;11.478;2023-03-01T04:07:42;17.27;;;15.17;;
19456;SDS011;9867;48.094;11.478;2023-03-01T04:10:11;18.43;;;16.43;;
19456;SDS011;9867;48.094;11.478;2023-03-01T04:12:39;17.80;;;15.70;;
19456;SDS011;9867;48.094;11.478;2023-03-01T04:15:07;18.90;;;16.13;;
19456;SDS011;9867;48.094;11.478;2023-03-01T04:17:39;21.00;;;16.93;;
19456;SDS011;9867;48.094;11.478;2023-03-01T04:20:07;18.07;;;15.97;;
19456;SDS011;9867;48.094;11.478;2023-03-01T04:22:35;18.47;;;16.27;;
19456;SDS011;9867;48.094;11.478;2023-03-01T04:25:01;18.00;;;16.13;;
19456;SDS011;9867;48.094;11.478;2023-03-01T04:27:29;18.50;;;16.50;;
19456;SDS011;9867;48.094;11.478;2023-03-01T04:29:55;22.20;;;16.60;;
19456;SDS011;9867;48.094;11.478;2023-03-01T04:32:22;21.80;;;16.73;;
19456;SDS011;9867;48.094;11.478;2023-03-01T04:34:48;18.23;;;16.33;;
19456;SDS011;9867;48.094;11.478;2023-03-01T04:37:15;18.67;;;16.20;;
19456;SDS011;9867;48.094;11.478;2023-03-01T04:39:41;23.43;;;16.83;;
19456;SDS011;9867;48.094;11.478;2023-03-01T04:42:11;18.87;;;16.87;;
19456;SDS011;9867;48.094;11.478;2023-03-01T04:44:38;17.80;;;15.90;;
19456;SDS011;9867;48.094;11.478;2023-03-01T04:47:05;18.70;;;15.93;;
19456;SDS011;9867;48.094;11.478;2023-03-01T04:49:31;19.17;;;17.13;;
19456;SDS011;9867;48.094;11.478;2023-03-01T04:51:58;18.53;;;16.60;;
19456;SDS011;9867;48.094;11.478;2023-03-01T04:54:27;19.10;;;16.60;;
19456;SDS011;9867;48.094;11.478;2023-03-01T04:56:55;18.03;;;16.07;;
19456;SDS011;9867;48.094;11.478;2023-03-01T04:59:22;19.07;;;16.97;;
19456;SDS011;9867;48.094;11.478;2023-03-01T05:01:49;18.57;;;16.63;;
19456;SDS011;9867;48.094;11.478;2023-03-01T05:04:16;18.93;;;16.77;;
19456;SDS011;9867;48.094;11.478;2023-03-01T05:06:43;20.27;;;16.33;;
19456;SDS011;9867;48.094;11.478;2023-03-01T05:09:09;17.33;;;15.53;;
19456;SDS011;9867;48.094;11.478;2023-03-01T05:11:37;19.13;;;16.37;;
19456;SDS011;9867;48.094;11.478;2023-03-01T05:14:03;19.10;;;16.10;;
19456;SDS011;9867;48.094;11.478;2023-03-01T05:16:30;19.80;;;17.27;;
19456;SDS011;9867;48.094;11.478;2023-03-01T05:19:01;17.57;;;15.67;;
19456;SDS011;9867;48.094;11.478;2023-03-01T05:21:37;19.43;;;16.67;;
19456;SDS011;9867;48.094;11.478;2023-03-01T05:24:25;18.50;;;16.03;;
19456;SDS011;9867;48.094;11.478;2023-03-01T05:26:52;21.30;;;17.43;;
19456;SDS011;9867;48.094;11.478;2023-03-01T05:29:19;21.87;;;17.77;;
19456;SDS011;9867;48.094;11.478;2023-03-01T05:31:51;17.70;;;15.80;;
19456;SDS011;9867;48.094;11.478;2023-03-01T05:34:19;18.63;;;16.70;;
19456;SDS011;9867;48.094;11.478;2023-03-01T05:36:49;19.23;;;16.47;;
19456;SDS011;9867;48.094;11.478;2023-03-01T05:39:19;22.03;;;17.73;;
19456;SDS011;9867;48.094;11.478;2023-03-01T05:41:47;20.20;;;17.20;;
19456;SDS011;9867;48.094;11.478;2023-03-01T05:44:14;19.87;;;17.10;;
19456;SDS011;9867;48.094;11.478;2023-03-01T05:46:41;21.23;;;18.47;;
19456;SDS011;9867;48.094;11.478;2023-03-01T05:49:08;19.07;;;17.03;;
19456;SDS011;9867;48.094;11.478;2023-03-01T05:51:35;19.00;;;17.00;;
19456;SDS011;9867;48.094;11.478;2023-03-01T05:54:01;19.97;;;17.33;;
19456;SDS011;9867;48.094;11.478;2023-03-01T05:56:28;21.37;;;16.53;;
19456;SDS011;9867;48.094;11.478;2023-03-01T05:58:55;23.70;;;17.27;;
19456;SDS011;9867;48.094;11.478;2023-03-01T06:01:21;18.30;;;16.27;;
19456;SDS011;9867;48.094;11.478;2023-03-01T06:03:48;19.00;;;17.00;;
19456;SDS011;9867;48.094;11.478;2023-03-01T06:06:15;19.73;;;17.00;;
19456;SDS011;9867;48.094;11.478;2023-03-01T06:08:42;18.67;;;16.67;;
19456;SDS011;9867;48.094;11.478;2023-03-01T06:11:08;22.50;;;17.50;;
19456;SDS011;9867;48.094;11.478;2023-03-01T06:13:37;17.47;;;15.43;;
19456;SDS011;9867;48.094;11.478;2023-03-01T06:16:04;20.53;;;17.50;;
19456;SDS011;9867;48.094;11.478;2023-03-01T06:18:32;19.30;;;16.33;;
19456;SDS011;9867;48.094;11.478;2023-03-01T06:20:58;19.73;;;16.63;;
19456;SDS011;9867;48.094;11.478;2023-03-01T06:23:25;21.57;;;17.70;;
19456;SDS011;9867;48.094;11.478;2023-03-01T06:25:52;21.07;;;17.47;;
19456;SDS011;9867;48.094;11.478;2023-03-01T06:28:19;20.47;;;16.57;;
19456;SDS011;9867;48.094;11.478;2023-03-01T06:30:45;20.50;;;16.33;;
19456;SDS011;9867;48.094;11.478;2023-03-01T06:33:12;20.73;;;17.03;;
19456;SDS011;9867;48.094;11.478;2023-03-01T06:35:39;19.07;;;17.07;;
19456;SDS011;9867;48.094;11.478;2023-03-01T06:38:06;25.50;;;18.43;;
19456;SDS011;9867;48.094;11.478;2023-03-01T06:40:33;18.80;;;16.80;;
19456;SDS011;9867;48.094;11.478;2023-03-01T06:43:01;20.07;;;17.93;;
19456;SDS011;9867;48.094;11.478;2023-03-01T06:45:28;20.50;;;17.13;;
19456;SDS011;9867;48.094;11.478;2023-03-01T06:48:01;19.10;;;16.00;;
19456;SDS011;9867;48.094;11.478;2023-03-01T06:50:29;18.50;;;16.50;;
19456;SDS011;9867;48.094;11.478;2023-03-01T06:52:56;23.13;;;16.70;;
19456;SDS011;9867;48.094;11.478;2023-03-01T06:55:23;19.97;;;16.97;;
19456;SDS011;9867;48.094;11.478;2023-03-01T06:57:53;19.77;;;16.73;;
19456;SDS011;9867;48.094;11.478;2023-03-01T07:00:22;20.33;;;16.57;;
19456;SDS011;9867;48.094;11.478;2023-03-01T07:03:14;19.60;;;15.90;;
19456;SDS011;9867;48.094;11.478;2023-03-01T07:05:41;18.13;;;16.23;;
19456;SDS011;9867;48.094;11.478;2023-03-01T07:08:08;19.10;;;16.53;;
19456;SDS011;9867;48.094;11.478;2023-03-01T07:10:34;19.60;;;16.03;;
19456;SDS011;9867;48.094;11.478;2023-03-01T07:13:01;17.03;;;14.57;;
19456;SDS011;9867;48.094;11.478;2023-03-01T07:15:29;21.27;;;17.33;;
19456;SDS011;9867;48.094;11.478;2023-03-01T07:17:55;21.23;;;16.60;;
19456;SDS011;9867;48.094;11.478;2023-03-01T07:20:22;19.77;;;16.93;;
19456;SDS011;9867;48.094;11.478;2023-03-01T07:22:50;20.90;;;17.60;;
19456;SDS011;9867;48.094;11.478;2023-03-01T07:25:17;21.03;;;17.23;;
19456;SDS011;9867;48.094;11.478;2023-03-01T07:27:43;19.63;;;17.07;;
19456;SDS011;9867;48.094;11.478;2023-03-01T07:30:14;20.53;;;17.43;;
19456;SDS011;9867;48.094;11.478;2023-03-01T07:32:42;19.40;;;15.97;;
19456;SDS011;9867;48.094;11.478;2023-03-01T07:35:09;21.33;;;16.90;;
19456;SDS011;9867;48.094;11.478;2023-03-01T07:37:36;20.03;;;17.50;;
19456;SDS011;9867;48.094;11.478;2023-03-01T07:40:03;19.87;;;16.63;;
19456;SDS011;9867;48.094;11.478;2023-03-01T07:42:30;20.33;;;17.43;;
19456;SDS011;9867;48.094;11.478;2023-03-01T07:44:56;21.10;;;18.10;;
19456;SDS011;9867;48.094;11.478;2023-03-01T07:47:24;20.83;;;17.93;;
19456;SDS011;9867;48.094;11.478;2023-03-01T07:49:51;21.47;;;17.67;;
19456;SDS011;9867;48.094;11.478;2023-03-01T07:52:22;20.97;;;18.00;;
19456;SDS011;9867;48.094;11.478;2023-03-01T07:54:48;19.20;;;17.03;;
19456;SDS011;9867;48.094;11.478;2023-03-01T07:57:16;21.33;;;18.13;;
19456;SDS011;9867;48.094;11.478;2023-03-01T07:59:42;20.40;;;17.13;;
19456;SDS011;9867;48.094;11.478;2023-03-01T08:02:09;23.00;;;17.90;;
19456;SDS011;9867;48.094;11.478;2023-03-01T08:04:37;19.60;;;17.30;;
19456;SDS011;9867;48.094;11.478;2023-03-01T08:07:06;23.27;;;16.87;;
19456;SDS011;9867;48.094;11.478;2023-03-01T08:09:34;20.03;;;17.90;;
19456;SDS011;9867;48.094;11.478;2023-03-01T08:12:00;24.27;;;18.27;;
19456;SDS011;9867;48.094;11.478;2023-03-01T08:14:27;22.53;;;17.73;;
19456;SDS011;9867;48.094;11.478;2023-03-01T08:16:53;20.87;;;17.93;;
19456;SDS011;9867;48.094;11.478;2023-03-01T08:19:20;19.97;;;16.80;;
19456;SDS011;9867;48.094;11.478;2023-03-01T08:21:49;19.67;;;16.93;;
19456;SDS011;9867;48.094;11.478;2023-03-01T08:24:17;21.03;;;18.17;;
19456;SDS011;9867;48.094;11.478;2023-03-01T08:26:45;24.67;;;17.47;;
19456;SDS011;9867;48.094;11.478;2023-03-01T08:29:14;21.03;;;18.63;;
19456;SDS011;9867;48.094;11.478;2023-03-01T08:31:41;19.80;;;17.67;;
19456;SDS011;9867;48.094;11.478;2023-03-01T08:34:09;19.13;;;17.13;;
19456;SDS011;9867;48.094;11.478;2023-03-01T08:36:38;19.67;;;17.53;;
19456;SDS011;9867;48.094;11.478;2023-03-01T08:39:06;20.47;;;17.83;;
19456;SDS011;9867;48.094;11.478;2023-03-01T08:41:34;22.27;;;18.30;;
19456;SDS011;9867;48.094;11.478;2023-03-01T08:44:01;21.37;;;16.87;;
19456;SDS011;9867;48.094;11.478;2023-03-01T08:46:29;20.60;;;18.17;;
19456;SDS011;9867;48.094;11.478;2023-03-01T08:48:57;21.37;;;17.97;;
19456;SDS011;9867;48.094;11.478;2023-03-01T08:51:24;23.20;;;17.53;;
19456;SDS011;9867;48.094;11.478;2023-03-01T08:53:51;19.97;;;17.50;;
19456;SDS011;9867;48.094;11.478;2023-03-01T08:56:18;22.63;;;17.67;;
19456;SDS011;9867;48.094;11.478;2023-03-01T08:58:46;19.77;;;17.00;;
19456;SDS011;9867;48.094;11.478;2023-03-01T09:01:14;19.87;;;17.47;;
19456;SDS011;9867;48.094;11.478;2023-03-01T09:03:42;23.47;;;18.40;;
19456;SDS011;9867;48.094;11.478;2023-03-01T09:06:09;21.87;;;18.00;;
19456;SDS011;9867;48.094;11.478;2023-03-01T09:08:37;20.30;;;18.10;;
19456;SDS011;9867;48.094;11.478;2023-03-01T09:11:06;22.77;;;18.47;;
19456;SDS011;9867;48.094;11.478;2023-03-01T09:13:34;22.13;;;18.47;;
19456;SDS011;9867;48.094;11.478;2023-03-01T09:16:02;20.80;;;18.60;;
19456;SDS011;9867;48.094;11.478;2023-03-01T09:18:30;20.63;;;18.43;;
19456;SDS011;9867;48.094;11.478;2023-03-01T09:21:01;20.77;;;18.57;;
19456;SDS011;9867;48.094;11.478;2023-03-01T09:23:28;21.70;;;19.40;;
19456;SDS011;9867;48.094;11.478;2023-03-01T09:25:54;20.93;;;18.73;;
19456;SDS011;9867;48.094;11.478;2023-03-01T09:28:23;23.10;;;19.27;;
19456;SDS011;9867;48.094;11.478;2023-03-01T09:30:57;21.57;;;19.27;;
19456;SDS011;9867;48.094;11.478;2023-03-01T09:33:25;26.63;;;18.60;;
19456;SDS011;9867;48.094;11.478;2023-03-01T09:35:55;22.07;;;19.80;;
19456;SDS011;9867;48.094;11.478;2023-03-01T09:38:22;21.20;;;18.90;;
19456;SDS011;9867;48.094;11.478;2023-03-01T09:40:52;21.00;;;18.80;;
19456;SDS011;9867;48.094;11.478;2023-03-01T09:43:21;22.13;;;18.37;;
19456;SDS011;9867;48.094;11.478;2023-03-01T09:45:52;22.33;;;19.50;;
19456;SDS011;9867;48.094;11.478;2023-03-01T09:48:21;20.87;;;18.67;;
19456;SDS011;9867;48.094;11.478;2023-03-01T09:50:53;24.30;;;18.87;;
19456;SDS011;9867;48.094;11.478;2023-03-01T09:53:20;22.97;;;20.17;;
19456;SDS011;9867;48.094;11.478;2023-03-01T09:55:50;25.13;;;19.87;;
19456;SDS011;9867;48.094;11.478;2023-03-01T09:58:37;21.83;;;19.53;;
19456;SDS011;9867;48.094;11.478;2023-03-01T10:01:21;22.60;;;18.40;;
19456;SDS011;9867;48.094;11.478;2023-03-01T10:04:00;22.57;;;19.57;;
19456;SDS011;9867;48.094;11.478;2023-03-01T10:06:37;22.53;;;19.50;;
19456;SDS011;9867;48.094;11.478;2023-03-01T10:09:06;20.77;;;18.23;;
19456;SDS011;9867;48.094;11.478;2023-03-01T10:11:37;21.00;;;18.77;;
19456;SDS011;9867;48.094;11.478;2023-03-01T10:14:13;22.93;;;18.33;;
19456;SDS011;9867;48.094;11.478;2023-03-01T10:16:50;21.77;;;19.57;;
19456;SDS011;9867;48.094;11.478;2023-03-01T10:19:24;20.97;;;18.87;;
19456;SDS011;9867;48.094;11.478;2023-03-01T10:21:56;21.20;;;18.70;;
19456;SDS011;9867;48.094;11.478;2023-03-01T10:24:26;22.10;;;19.80;;
19456;SDS011;9867;48.094;11.478;2023-03-01T10:26:57;23.10;;;19.67;;
19456;SDS011;9867;48.094;11.478;2023-03-01T10:29:29;22.07;;;19.73;;
19456;SDS011;9867;48.094;11.478;2023-03-01T10:32:00;20.00;;;17.90;;
19456;SDS011;9867;48.094;11.478;2023-03-01T10:34:33;21.00;;;18.67;;
19456;SDS011;9867;48.094;11.478;2023-03-01T10:37:09;20.83;;;18.63;;
19456;SDS011;9867;48.094;11.478;2023-03-01T10:39:37;21.77;;;18.43;;
19456;SDS011;9867;48.094;11.478;2023-03-01T10:42:22;27.60;;;20.33;;
19456;SDS011;9867;48.094;11.478;2023-03-01T10:44:52;21.90;;;19.60;;
19456;SDS011;9867;48.094;11.478;2023-03-01T10:47:20;23.30;;;19.80;;
19456;SDS011;9867;48.094;11.478;2023-03-01T10:49:52;22.60;;;19.30;;
19456;SDS011;9867;48.094;11.478;2023-03-01T10:52:22;24.63;;;19.60;;
19456;SDS011;9867;48.094;11.478;2023-03-01T10:54:51;22.10;;;19.73;;
19456;SDS011;9867;48.094;11.478;2023-03-01T10:57:28;23.30;;;18.77;;
19456;SDS011;9867;48.094;11.478;2023-03-01T11:00:15;23.17;;;18.83;;
19456;SDS011;9867;48.094;11.478;2023-03-01T11:02:46;22.70;;;19.40;;
19456;SDS011;9867;48.094;11.478;2023-03-01T11:05:19;21.60;;;19.27;;
19456;SDS011;9867;48.094;11.478;2023-03-01T11:07:50;23.07;;;20.57;;
19456;SDS011;9867;48.094;11.478;2023-03-01T11:10:19;21.13;;;18.93;;
19456;SDS011;9867;48.094;11.478;2023-03-01T11:12:47;21.63;;;19.27;;
19456;SDS011;9867;48.094;11.478;2023-03-01T11:15:20;20.57;;;18.37;;
19456;SDS011;9867;48.094;11.478;2023-03-01T11:17:49;22.53;;;19.60;;
19456;SDS011;9867;48.094;11.478;2023-03-01T11:20:27;21.90;;;18.60;;
19456;SDS011;9867;48.094;11.478;2023-03-01T11:22:58;19.27;;;17.27;;
19456;SDS011;9867;48.094;11.478;2023-03-01T11:25:29;21.20;;;19.10;;
19456;SDS011;9867;48.094;11.478;2023-03-01T11:28:01;20.47;;;17.73;;
19456;SDS011;9867;48.094;11.478;2023-03-01T11:30:30;20.53;;;17.20;;
19456;SDS011;9867;48.094;11.478;2023-03-01T11:33:05;20.17;;;17.80;;
19456;SDS011;9867;48.094;11.478;2023-03-01T11:35:41;23.23;;;19.60;;
19456;SDS011;9867;48.094;11.478;2023-03-01T11:38:15;20.57;;;18.47;;
19456;SDS011;9867;48.094;11.478;2023-03-01T11:40:47;20.97;;;18.80;;
19456;SDS011;9867;48.094;11.478;2023-03-01T11:43:23;22.07;;;19.77;;
19456;SDS011;9867;48.094;11.478;2023-03-01T11:46:18;22.60;;;20.17;;
19456;SDS011;9867;48.094;11.478;2023-03-01T11:49:00;22.90;;;20.40;;
19456;SDS011;9867;48.094;11.478;2023-03-01T11:51:42;25.80;;;21.13;;
19456;SDS011;9867;48.094;11.478;2023-03-01T11:54:25;22.47;;;19.53;;
19456;SDS011;9867;48.094;11.478;2023-03-01T11:57:00;21.23;;;18.77;;
19456;SDS011;9867;48.094;11.478;2023-03-01T11:59:45;21.37;;;18.70;;
19456;SDS011;9867;48.094;11.478;2023-03-01T12:02:40;22.43;;;20.13;;
19456;SDS011;9867;48.094;11.478;2023-03-01T12:05:24;22.50;;;19.00;;
19456;SDS011;9867;48.094;11.478;2023-03-01T12:08:10;21.50;;;19.27;;
19456;SDS011;9867;48.094;11.478;2023-03-01T12:10:43;22.33;;;19.53;;
19456;SDS011;9867;48.094;11.478;2023-03-01T12:13:29;21.17;;;18.97;;
19456;SDS011;9867;48.094;11.478;2023-03-01T12:16:27;21.50;;;19.30;;
19456;SDS011;9867;48.094;11.478;2023-03-01T12:19:21;21.20;;;19.00;;
19456;SDS011;9867;48.094;11.478;2023-03-01T12:22:21;21.13;;;19.03;;
19456;SDS011;9867;48.094;11.478;2023-03-01T12:31:05;21.93;;;19.73;;
19456;SDS011;9867;48.094;11.478;2023-03-01T12:33:54;22.87;;;19.73;;
19456;SDS011;9867;48.094;11.478;2023-03-01T12:39:24;21.33;;;19.13;;
19456;SDS011;9867;48.094;11.478;2023-03-01T12:42:04;21.13;;;18.83;;
19456;SDS011;9867;48.094;11.478;2023-03-01T12:44:45;23.03;;;20.50;;
19456;SDS011;9867;48.094;11.478;2023-03-01T12:47:31;23.70;;;20.03;;
19456;SDS011;9867;48.094;11.478;2023-03-01T12:50:11;22.30;;;20.07;;
19456;SDS011;9867;48.094;11.478;2023-03-01T12:52:43;22.90;;;20.47;;
19456;SDS011;9867;48.094;11.478;2023-03-01T12:55:18;21.93;;;19.33;;
19456;SDS011;9867;48.094;11.478;2023-03-01T12:57:53;22.57;;;20.23;;
19456;SDS011;9867;48.094;11.478;2023-03-01T13:00:30;21.63;;;19.43;;
19456;SDS011;9867;48.094;11.478;2023-03-01T13:03:06;21.37;;;19.23;;
19456;SDS011;9867;48.094;11.478;2023-03-01T13:05:46;20.90;;;18.57;;
19456;SDS011;9867;48.094;11.478;2023-03-01T13:08:22;22.47;;;20.07;;
19456;SDS011;9867;48.094;11.478;2023-03-01T13:10:56;23.33;;;20.83;;
19456;SDS011;9867;48.094;11.478;2023-03-01T13:13:25;21.93;;;19.73;;
19456;SDS011;9867;48.094;11.478;2023-03-01T13:15:54;22.43;;;20.13;;
19456;SDS011;9867;48.094;11.478;2023-03-01T13:18:28;22.53;;;20.13;;
19456;SDS011;9867;48.094;11.478;2023-03-01T13:20:59;23.10;;;19.97;;
19456;SDS011;9867;48.094;11.478;2023-03-01T13:23:29;22.67;;;20.27;;
19456;SDS011;9867;48.094;11.478;2023-03-01T13:26:09;23.40;;;20.90;;
19456;SDS011;9867;48.094;11.478;2023-03-01T13:28:39;22.40;;;20.00;;
19456;SDS011;9867;48.094;11.478;2023-03-01T13:31:08;22.10;;;19.90;;
19456;SDS011;9867;48.094;11.478;2023-03-01T13:33:40;22.00;;;19.87;;
19456;SDS011;9867;48.094;11.478;2023-03-01T13:39:26;21.83;;;19.53;;
19456;SDS011;9867;48.094;11.478;2023-03-01T13:41:57;22.17;;;19.93;;
19456;SDS011;9867;48.094;11.478;2023-03-01T13:44:26;23.40;;;21.03;;
19456;SDS011;9867;48.094;11.478;2023-03-01T13:46:58;23.47;;;20.90;;
19456;SDS011;9867;48.094;11.478;2023-03-01T13:49:35;21.20;;;19.10;;
19456;SDS011;9867;48.094;11.478;2023-03-01T13:55:05;21.70;;;19.40;;
19456;SDS011;9867;48.094;11.478;2023-03-01T13:57:43;21.80;;;19.63;;
19456;SDS011;9867;48.094;11.478;2023-03-01T14:00:24;22.37;;;20.03;;
19456;SDS011;9867;48.094;11.478;2023-03-01T14:03:20;22.63;;;20.33;;
19456;SDS011;9867;48.094;11.478;2023-03-01T14:05:57;22.87;;;20.50;;
19456;SDS011;9867;48.094;11.478;2023-03-01T14:08:39;23.30;;;20.67;;
19456;SDS011;9867;48.094;11.478;2023-03-01T14:14:03;21.37;;;19.10;;
19456;SDS011;9867;48.094;11.478;2023-03-01T14:16:43;22.60;;;20.30;;
19456;SDS011;9867;48.094;11.478;2023-03-01T14:19:18;23.50;;;20.83;;
19456;SDS011;9867;48.094;11.478;2023-03-01T14:21:59;21.60;;;19.30;;
19456;SDS011;9867;48.094;11.478;2023-03-01T14:24:39;23.17;;;20.77;;
19456;SDS011;9867;48.094;11.478;2023-03-01T14:27:11;22.83;;;20.47;;
19456;SDS011;9867;48.094;11.478;2023-03-01T14:29:38;21.53;;;19.27;;
19456;SDS011;9867;48.094;11.478;2023-03-01T14:32:09;22.00;;;19.80;;
19456;SDS011;9867;48.094;11.478;2023-03-01T14:34:39;22.67;;;20.17;;
19456;SDS011;9867;48.094;11.478;2023-03-01T14:37:09;21.70;;;19.47;;
19456;SDS011;9867;48.094;11.478;2023-03-01T14:39:36;24.80;;;19.97;;
19456;SDS011;9867;48.094;11.478;2023-03-01T14:42:03;22.73;;;19.97;;
19456;SDS011;9867;48.094;11.478;2023-03-01T14:44:41;23.23;;;20.03;;
19456;SDS011;9867;48.094;11.478;2023-03-01T14:47:10;22.17;;;19.47;;
19456;SDS011;9867;48.094;11.478;2023-03-01T14:49:38;21.77;;;19.40;;
19456;SDS011;9867;48.094;11.478;2023-03-01T14:52:07;21.80;;;19.47;;
19456;SDS011;9867;48.094;11.478;2023-03-01T14:54:46;22.07;;;19.77;;
19456;SDS011;9867;48.094;11.478;2023-03-01T14:57:15;21.43;;;19.23;;
19456;SDS011;9867;48.094;11.478;2023-03-01T14:59:43;22.00;;;19.70;;
19456;SDS011;9867;48.094;11.478;2023-03-01T15:02:11;22.93;;;20.63;;